• Join FlightAware (Why Join?)
  • Login
  • US Flag 
08:44PM EDT


 

Airport Tracker/Info


-or-


 

Live Flight TrackerFlight Track Log ✈ FIV521 ✈ 11-Jul-2013 ✈ KSTC - KBZN

Flight Track Log - Related Links

Times and Time Zones

All times are in EDT time to prevent confusion due to time zone crossing. See the FIV521 flight status page for this flight to view local times or setup timezone preferences in your user account.

Time Position Orientation Groundspeed Altitude Reporting Facility
EDT Latitude Longitude Course Direction KTS MPH feet Rate Location/Type
09:46AM 45.5025 -94.1181 280° West 263 303 4,200  Level Minneapolis Center
09:47AM 45.5142 -94.2172 280° West 256 295 6,700 2,820 Climbing Minneapolis Center
09:48AM 45.5264 -94.3467 278° West 274 315 10,100 2,700 Climbing Minneapolis Center
09:49AM 45.5339 -94.4578 276° West 279 321 12,400 1,980 Climbing Minneapolis Center
09:50AM 45.5439 -94.5756 277° West 292 336 14,300 2,040 Climbing Minneapolis Center
09:51AM 45.5533 -94.6981 276° West 306 352 16,700 1,860 Climbing Minneapolis Center
09:52AM 45.5642 -94.8211 277° West 311 358 18,500 1,860 Climbing Minneapolis Center
09:53AM 45.5756 -94.9744 276° West 321 369 21,000 2,160 Climbing Minneapolis Center
09:54AM 45.5853 -95.1133 276° West 331 381 23,000 1,920 Climbing Minneapolis Center
09:55AM 45.5975 -95.2736 276° West 339 390 25,000 1,500 Climbing Minneapolis Center
09:56AM 45.6058 -95.3850 276° West 348 400 26,200 1,620 Climbing Minneapolis Center
09:57AM 45.6186 -95.5517 276° West 354 407 28,400 1,980 Climbing Minneapolis Center
09:58AM 45.6278 -95.6864 276° West 345 397 30,300 1,800 Climbing Minneapolis Center
09:59AM 45.6336 -95.8189 274° West 338 389 32,200 1,980 Climbing Minneapolis Center
10:00AM 45.6450 -95.9403 278° West 312 359 34,400 1,860 Climbing Minneapolis Center
10:01AM 45.6558 -96.0806 276° West 298 343 36,100 1,380 Climbing Minneapolis Center
10:02AM 45.6636 -96.1947 276° West 291 335 37,300 900 Climbing Minneapolis Center
10:03AM 45.6708 -96.3094 275° West 290 334 38,000 300 Climbing Minneapolis Center
10:04AM 45.6794 -96.4300 276° West 302 348 38,000  Level Minneapolis Center
10:05AM 45.6875 -96.5622 275° West 327 376 38,000  Level Minneapolis Center
10:06AM 45.6978 -96.7269 275° West 344 396 38,000  Level Minneapolis Center
10:08AM 45.7064 -96.8686 275° West 354 407 38,000  Level Minneapolis Center
10:09AM 45.7142 -97.0097 275° West 357 411 38,000  Level Minneapolis Center
10:10AM 45.7222 -97.1525 275° West 360 414 38,000  Level Minneapolis Center
10:11AM 45.7308 -97.2922 275° West 357 411 38,000  Level Minneapolis Center
10:12AM 45.7383 -97.4331 274° West 356 410 38,000  Level Minneapolis Center
10:13AM 45.7475 -97.6019 275° West 356 410 38,000  Level Minneapolis Center
10:14AM 45.7544 -97.7147 275° West 357 411 38,000  Level Minneapolis Center
10:15AM 45.7622 -97.8811 274° West 352 405 38,000  Level Minneapolis Center
10:16AM 45.7708 -98.0208 275° West 353 406 38,000  Level Minneapolis Center
10:17AM 45.7808 -98.1833 275° West 354 407 38,000  Level Minneapolis Center
10:18AM 45.7875 -98.3231 274° West 353 406 38,000  Level Minneapolis Center
10:19AM 45.7914 -98.4619 272° West 351 404 38,000  Level Minneapolis Center
10:20AM 45.7986 -98.6000 274° West 350 403 38,000  Level Minneapolis Center
10:21AM 45.8053 -98.7672 273° West 351 404 38,000  Level Minneapolis Center
10:22AM 45.8117 -98.9075 274° West 353 406 38,000  Level Minneapolis Center
10:23AM 45.8186 -99.0756 273° West 353 406 38,000  Level Minneapolis Center
10:24AM 45.8233 -99.2172 273° West 355 409 38,000  Level Minneapolis Center
10:25AM 45.8294 -99.3575 274° West 355 409 38,000  Level Minneapolis Center
10:26AM 45.8353 -99.4997 273° West 357 411 38,000  Level Minneapolis Center
10:27AM 45.8403 -99.6428 273° West 359 413 38,000  Level Minneapolis Center
10:28AM 45.8453 -99.7844 273° West 358 412 38,000  Level Minneapolis Center
10:29AM 45.8506 -99.9558 273° West 360 414 38,000  Level Minneapolis Center
10:30AM 45.8561 -100.0997 273° West 362 417 38,000  Level Minneapolis Center
10:32AM 45.8597 -100.2439 272° West 363 418 38,000  Level Minneapolis Center
10:33AM 45.8647 -100.3872 273° West 362 417 38,000  Level Minneapolis Center
10:34AM 45.8683 -100.5306 272° West 362 417 38,000  Level Minneapolis Center
10:35AM 45.8725 -100.7022 272° West 361 415 38,000  Level Minneapolis Center
10:36AM 45.8778 -100.8483 273° West 366 421 38,000  Level Minneapolis Center
10:37AM 45.8800 -100.9931 271° West 364 419 38,000  Level Minneapolis Center
10:38AM 45.8828 -101.1367 272° West 363 418 38,000  Level Minneapolis Center
10:39AM 45.8881 -101.2822 273° West 365 420 38,000  Level Minneapolis Center
10:40AM 45.8911 -101.4281 272° West 366 421 38,000  Level Minneapolis Center
10:41AM 45.8947 -101.6025 272° West 366 421 38,000  Level Minneapolis Center
10:42AM 45.8969 -101.7506 271° West 368 423 38,000  Level Minneapolis Center
10:43AM 45.8989 -101.8967 271° West 368 423 38,000  Level Minneapolis Center
10:44AM 45.9028 -102.0125 273° West 367 422 38,000  Level Minneapolis Center
10:45AM 45.9039 -102.1906 271° West 369 425 38,000  Level Minneapolis Center
10:46AM 45.9064 -102.3367 271° West 369 425 38,000  Level Minneapolis Center
10:47AM 45.9081 -102.5144 271° West 372 428 38,000  Level Minneapolis Center
10:48AM 45.9089 -102.6314 271° West 370 426 38,000  Level Minneapolis Center
10:49AM 45.9103 -102.7908 271° West 370 426 38,000  Level Minneapolis Center
10:50AM 45.9114 -102.9678 271° West 370 426 38,000  Level Minneapolis Center
10:51AM 45.9131 -103.1158 271° West 371 427 38,000  Level Minneapolis Center
10:52AM 45.9128 -103.2628 270° West 371 427 38,000  Level Minneapolis Center
10:53AM 45.9139 -103.4108 271° West 370 426 38,000  Level Minneapolis Center
10:54AM 45.9131 -103.5583 270° West 370 426 38,000  Level Minneapolis Center
10:55AM 45.9139 -103.7044 271° West 369 425 38,000  Level Minneapolis Center
10:56AM 45.9139 -103.8822 270° West 371 427 38,000  Level Minneapolis Center
10:57AM 45.9128 -104.0281 269° West 368 423 38,000  Level Minneapolis Center
10:58AM 45.9131 -104.1756 270° West 368 423 38,000  Level Minneapolis Center
10:59AM 45.9117 -104.3222 269° West 368 423 38,000  Level Minneapolis Center
11:00AM 45.9106 -104.4703 269° West 370 426 38,000  Level Minneapolis Center
11:02AM 45.9094 -104.6767 270° West 371 427 38,000  Level Salt Lake Center
11:03AM 45.9086 -104.8236 270° West 370 426 38,000  Level Salt Lake Center
11:04AM 45.9072 -104.9722 269° West 372 428 38,000  Level Salt Lake Center
11:05AM 45.9058 -105.1192 269° West 372 428 38,000  Level Salt Lake Center
11:06AM 45.8992 -105.2936 267° West 369 425 38,000  Level Salt Lake Center
11:07AM 45.8972 -105.4403 269° West 368 423 38,000  Level Salt Lake Center
11:08AM 45.8953 -105.5878 269° West 369 425 38,000  Level Salt Lake Center
11:09AM 45.8911 -105.7344 268° West 370 426 38,000  Level Salt Lake Center
11:10AM 45.8886 -105.8819 269° West 371 427 38,000  Level Salt Lake Center
11:11AM 45.8856 -106.0281 268° West 369 425 38,000  Level Salt Lake Center
11:12AM 45.8836 -106.2050 269° West 370 426 38,000  Level Salt Lake Center
11:13AM 45.8811 -106.3511 269° West 369 425 38,000  Level Salt Lake Center
11:14AM 45.8794 -106.4964 269° West 367 422 38,000  Level Salt Lake Center
11:15AM 45.8761 -106.6422 268° West 367 422 38,000  Level Salt Lake Center
11:16AM 45.8733 -106.7861 268° West 363 418 38,000 -60 Level Salt Lake Center
11:17AM 45.8686 -106.9586 268° West 362 417 37,900 -660 Descending Salt Lake Center
11:18AM 45.8636 -107.1014 267° West 360 414 36,700 -1,200 Descending Salt Lake Center
11:19AM 45.8589 -107.2433 267° West 356 410 35,500 -1,260 Descending Salt Lake Center
11:20AM 45.8553 -107.3878 268° West 362 417 34,200 -780 Descending Salt Lake Center
11:21AM 45.8503 -107.5294 267° West 357 411 34,000 -120 Descending Salt Lake Center
11:22AM 45.8453 -107.6747 267° West 367 422 34,000  Level Salt Lake Center
11:24AM 45.8392 -107.8492 267° West 367 422 34,000  Level Salt Lake Center
11:25AM 45.8339 -107.9950 267° West 368 423 34,000  Level Salt Lake Center
11:26AM 45.8283 -108.1428 267° West 372 428 34,000  Level Salt Lake Center
11:27AM 45.8225 -108.2886 267° West 368 423 34,000  Level Salt Lake Center
11:28AM 45.8161 -108.4325 266° West 364 419 34,000 -120 Level Salt Lake Center
11:29AM 45.8122 -108.6097 268° West 369 425 33,800 -660 Descending Salt Lake Center
11:30AM 45.8083 -108.7650 268° West 374 430 32,700 -1,140 Descending Salt Lake Center
11:31AM 45.8078 -108.9111 270° West 368 423 31,500 -1,140 Descending Salt Lake Center
11:32AM 45.8078 -109.0556 270° West 365 420 30,400 -1,080 Descending Salt Lake Center
11:33AM 45.8067 -109.2039 269° West 372 428 29,300 -1,080 Descending Salt Lake Center
11:34AM 45.8056 -109.3558 269° West 382 440 28,200 -1,200 Descending Salt Lake Center
11:35AM 45.8047 -109.5417 270° West 389 448 26,900 -1,260 Descending Salt Lake Center
11:36AM 45.8031 -109.6989 269° West 395 455 25,600 -1,740 Descending Salt Lake Center
11:37AM 45.8008 -109.8567 269° West 398 458 23,400 -2,160 Descending Salt Lake Center
11:38AM 45.7981 -110.0194 269° West 407 468 21,200 -2,100 Descending Salt Lake Center
11:39AM 45.7967 -110.1728 269° West 394 453 19,100 -1,980 Descending Salt Lake Center
11:40AM 45.7944 -110.3175 269° West 373 429 17,200 -2,040 Descending Salt Lake Center
11:41AM 45.7917 -110.4847 269° West 355 409 15,000 -1,980 Descending Salt Lake Center
11:42AM 45.7889 -110.6217 268° West 348 400 13,200 -1,500 Descending Salt Lake Center
11:43AM 45.7864 -110.7414 268° West 298 343 12,000 -600 Descending Salt Lake Center
11:44AM 45.7844 -110.8408 268° West 257 296 12,000  Level Salt Lake Center
11:45AM 45.8056 -110.9336 288° West 253 291 12,000  Level Salt Lake Center
11:46AM 45.8367 -111.0208 297° West 252 290 12,000  Level Salt Lake Center